createdAt,value
2023-03-23T00:00:45.688Z,15.7583
2023-03-23T00:05:47.492Z,15.05478
2023-03-23T00:10:49.036Z,15.02366
2023-03-23T00:15:51.096Z,14.54088
2023-03-23T00:20:52.576Z,14.31982
2023-03-23T00:25:54.011Z,14.03588
2023-03-23T00:30:55.498Z,12.86008
2023-03-23T00:35:57.235Z,12.35985
2023-03-23T00:40:59.250Z,10.66861
2023-03-23T00:46:01.020Z,9.96449
2023-03-23T00:51:02.557Z,9.70279
2023-03-23T00:56:03.938Z,8.49371
2023-03-23T01:01:05.623Z,8.01319
2023-03-23T01:06:06.957Z,7.44693
2023-03-23T01:11:13.165Z,7.35864
2023-03-23T01:16:14.732Z,7.95666
2023-03-23T01:21:16.305Z,7.86647
2023-03-23T01:26:17.872Z,7.26654
2023-03-23T01:31:19.373Z,6.5561
2023-03-23T01:36:20.876Z,5.79771
2023-03-23T01:41:22.332Z,6.05908
2023-03-23T01:46:23.756Z,5.7669
2023-03-23T01:51:36.576Z,5.4417
2023-03-23T01:56:41.831Z,5.44964
2023-03-23T02:01:43.280Z,6.04066
2023-03-23T02:06:44.772Z,5.55952
2023-03-23T02:11:46.352Z,4.38543
2023-03-23T02:16:47.770Z,4.51849
2023-03-23T02:21:49.191Z,4.91166
2023-03-23T02:26:50.617Z,5.6116
2023-03-23T02:31:52.074Z,4.51595
2023-03-23T02:36:53.588Z,4.08373
2023-03-23T02:41:54.998Z,3.48478
2023-03-23T02:46:56.693Z,3.78108
2023-03-23T02:51:58.512Z,4.8564
2023-03-23T02:57:00.049Z,4.898
2023-03-23T03:02:01.523Z,4.65061
2023-03-23T03:07:03.856Z,4.50769
2023-03-23T03:12:05.469Z,4.58074
2023-03-23T03:17:06.935Z,4.11739
2023-03-23T03:22:08.858Z,4.31937
2023-03-23T03:27:10.730Z,4.24823
2023-03-23T03:32:12.186Z,3.69914
2023-03-23T03:37:13.774Z,4.00656
2023-03-23T03:42:15.190Z,4.25427
2023-03-23T03:47:16.611Z,3.81474
2023-03-23T03:52:18.534Z,3.84523
2023-03-23T03:57:20.053Z,3.64484
2023-03-23T04:02:21.920Z,2.73785
2023-03-23T04:07:23.451Z,2.88044
2023-03-23T04:12:25.673Z,2.82518
2023-03-23T04:17:27.053Z,3.24501
2023-03-23T04:22:28.507Z,2.86551
2023-03-23T04:27:30.319Z,2.42504
2023-03-23T04:32:32.389Z,2.27451
2023-03-23T04:37:33.814Z,2.42758
2023-03-23T04:42:35.261Z,1.62032
2023-03-23T04:47:36.786Z,1.882
2023-03-23T04:52:38.358Z,2.18654
2023-03-23T04:57:40.935Z,1.78641
2023-03-23T05:02:42.438Z,1.93376
2023-03-23T05:07:44.078Z,1.65144
2023-03-23T05:12:45.493Z,0.87054
2023-03-23T05:17:46.942Z,0.37451
2023-03-23T05:22:48.389Z,1.13095
2023-03-23T05:27:49.847Z,0.90325
2023-03-23T05:32:51.281Z,0.8769
2023-03-23T05:37:52.720Z,0.36752
2023-03-23T05:42:54.177Z,0.32338
2023-03-23T05:47:55.586Z,-0.28761
2023-03-23T05:52:57.118Z,0.63904
2023-03-23T05:57:58.585Z,-0.10501
2023-03-23T06:02:59.991Z,0.29099
2023-03-23T06:08:01.487Z,-0.32095
2023-03-23T06:13:02.897Z,0.30941
2023-03-23T06:18:04.300Z,0.51646
2023-03-23T06:23:05.785Z,-0.16821
2023-03-23T06:28:07.197Z,-0.10342
2023-03-23T06:33:08.570Z,0.07727
2023-03-23T06:38:10.016Z,0.01598
2023-03-23T06:43:11.374Z,-0.52419
2023-03-23T06:48:12.756Z,-0.70711
2023-03-23T06:53:14.210Z,-0.38129
2023-03-23T06:58:15.653Z,-1.45369
2023-03-23T07:03:17.083Z,-1.4721
2023-03-23T07:08:18.578Z,-1.69757
2023-03-23T07:13:20.056Z,-1.67089
2023-03-23T07:18:22.939Z,-1.21806
2023-03-23T07:23:24.374Z,-1.52609
2023-03-23T07:28:25.812Z,-1.481
2023-03-23T07:33:27.225Z,-1.46226
2023-03-23T07:38:28.641Z,-1.23235
2023-03-23T07:43:30.112Z,-1.52514
2023-03-23T07:48:31.591Z,-1.45623
2023-03-23T07:53:32.980Z,-1.56388
2023-03-23T07:58:34.319Z,-1.25934
2023-03-23T08:03:35.708Z,-1.6474
2023-03-23T08:08:37.090Z,-1.91891
2023-03-23T08:13:38.731Z,-1.2098
2023-03-23T08:18:40.257Z,-1.66264
2023-03-23T08:23:41.670Z,-2.0364
2023-03-23T08:28:43.092Z,-2.28409
2023-03-23T08:33:44.622Z,-1.66899
2023-03-23T08:38:46.178Z,-1.19424
2023-03-23T08:43:47.815Z,-1.50513
2023-03-23T08:48:49.309Z,-1.4991
2023-03-23T08:53:50.725Z,-1.86048
2023-03-23T08:58:52.186Z,-2.03545
2023-03-23T09:03:53.581Z,-1.45178
2023-03-23T09:08:54.975Z,-2.45684
2023-03-23T09:13:56.392Z,-1.66645
2023-03-23T09:18:57.791Z,-2.1539
2023-03-23T09:23:59.267Z,-1.87604
2023-03-23T09:29:00.704Z,-2.16914
2023-03-23T09:34:02.139Z,-2.04371
2023-03-23T09:39:03.569Z,-2.05863
2023-03-23T09:44:04.949Z,-1.8084
2023-03-23T09:49:06.405Z,-2.73534
2023-03-23T09:54:07.820Z,-2.13262
2023-03-23T09:59:09.211Z,-2.04561
2023-03-23T10:04:10.671Z,-3.16054
2023-03-23T10:09:12.072Z,-2.68135
2023-03-23T10:14:13.716Z,-2.82774
2023-03-23T10:19:15.136Z,-3.71466
2023-03-23T10:24:16.612Z,-3.09385
2023-03-23T10:29:17.986Z,-3.50413
2023-03-23T10:34:19.548Z,-4.32023
2023-03-23T10:39:20.972Z,-3.95187
2023-03-23T10:44:22.362Z,-2.88681
2023-03-23T10:49:23.871Z,-2.86331
2023-03-23T10:54:25.275Z,-2.57307
2023-03-23T10:59:26.738Z,-2.82616
2023-03-23T11:04:28.195Z,-2.51718
2023-03-23T11:09:29.773Z,-2.28727
2023-03-23T11:14:31.198Z,-2.41842
2023-03-23T11:19:32.730Z,-2.73153
2023-03-23T11:24:34.107Z,-2.42509
2023-03-23T11:29:35.547Z,-3.45777
2023-03-23T11:34:36.953Z,-2.92682
2023-03-23T11:39:38.418Z,-3.37965
2023-03-23T11:44:40.024Z,-3.15355
2023-03-23T11:49:41.432Z,-3.24088
2023-03-23T11:54:42.989Z,-3.34948
2023-03-23T11:59:44.451Z,-3.0151
2023-03-23T12:04:46.031Z,-4.15828
2023-03-23T12:09:47.468Z,-3.56351
2023-03-23T12:14:48.919Z,-3.50984
2023-03-23T12:19:50.593Z,-3.53366
2023-03-23T12:24:52.017Z,-3.30598
2023-03-23T12:29:53.504Z,-3.06464
2023-03-23T12:34:54.876Z,-3.5181
2023-03-23T12:39:56.428Z,-3.5127
2023-03-23T12:44:57.926Z,-3.50762
2023-03-23T12:49:59.416Z,-4.00903
2023-03-23T12:55:00.843Z,-3.53048
2023-03-23T13:00:02.208Z,-3.94933
2023-03-23T13:05:03.609Z,-3.48984
2023-03-23T13:10:05.381Z,-4.04904
2023-03-23T13:15:07.345Z,-3.65846
2023-03-23T13:20:08.851Z,-3.88741
2023-03-23T13:25:10.344Z,-3.88455
2023-03-23T13:30:11.778Z,-3.7407
2023-03-23T13:35:13.322Z,-3.96997
2023-03-23T13:40:14.751Z,-4.05698
2023-03-23T13:45:16.191Z,-3.94266
2023-03-23T13:50:17.629Z,-4.10652
2023-03-23T13:55:19.265Z,-4.36278
2023-03-23T14:00:20.694Z,-3.86645
2023-03-23T14:05:22.449Z,-3.5832
2023-03-23T14:10:23.872Z,-3.84327
2023-03-23T14:15:25.472Z,-4.57903
2023-03-23T14:20:27.025Z,-3.71054
2023-03-23T14:25:28.565Z,-3.70641
2023-03-23T14:30:30.151Z,-4.47455
2023-03-23T14:35:31.835Z,-4.06968
2023-03-23T14:40:33.266Z,-4.22528
2023-03-23T14:45:34.747Z,-4.38723
2023-03-23T14:50:36.140Z,-4.16399
2023-03-23T14:55:37.559Z,-2.04593
2023-03-23T15:00:38.961Z,-1.13708
2023-03-23T15:05:40.420Z,-0.19488
2023-03-23T15:10:41.941Z,-0.43019
2023-03-23T15:15:43.542Z,-0.06246
2023-03-23T15:20:45.157Z,-0.13518
2023-03-23T15:25:46.579Z,-0.20155
2023-03-23T15:30:47.989Z,-0.09644
2023-03-23T15:35:49.508Z,0.68064
2023-03-23T15:40:50.945Z,1.00742
2023-03-23T15:45:52.398Z,1.66668
2023-03-23T15:50:53.997Z,0.10903
2023-03-23T15:55:55.427Z,0.44501
2023-03-23T16:00:56.981Z,-0.15804
2023-03-23T16:05:58.420Z,-0.01863
2023-03-23T16:10:59.832Z,0.76638
2023-03-23T16:16:01.477Z,0.97153
2023-03-23T16:21:02.900Z,0.58029
2023-03-23T16:26:04.278Z,1.11888
2023-03-23T16:31:05.739Z,1.90518
2023-03-23T16:36:07.208Z,2.06365
2023-03-23T16:41:08.656Z,1.68923
2023-03-23T16:46:10.150Z,1.95154
2023-03-23T16:51:11.654Z,1.01313
2023-03-23T16:56:13.213Z,1.20367
2023-03-23T17:01:14.801Z,2.31897
2023-03-23T17:06:16.191Z,2.5219
2023-03-23T17:11:17.621Z,2.53079
2023-03-23T17:16:19.181Z,2.35708
2023-03-23T17:21:20.672Z,1.91693
2023-03-23T17:26:22.114Z,3.9929
2023-03-23T17:31:23.659Z,4.55533
2023-03-23T17:36:25.226Z,3.70168
2023-03-23T17:41:26.723Z,3.41301
2023-03-23T17:46:28.310Z,3.98401
2023-03-23T17:51:29.768Z,4.64457
2023-03-23T17:56:31.173Z,4.88403
2023-03-23T18:01:32.662Z,4.63282
2023-03-23T18:06:34.134Z,5.71958
2023-03-23T18:11:35.630Z,5.50807
2023-03-23T18:16:37.217Z,6.99151
2023-03-23T18:21:38.738Z,6.4586
2023-03-23T18:26:40.164Z,4.5385
2023-03-23T18:31:41.579Z,7.1014
2023-03-23T18:36:43.026Z,7.29004
2023-03-23T18:41:44.576Z,7.00866
2023-03-23T18:46:45.981Z,7.29989
2023-03-23T18:51:47.399Z,7.93729
2023-03-23T18:56:49.164Z,8.04686
2023-03-23T19:01:50.621Z,7.86901
2023-03-23T19:06:52.078Z,7.98366
2023-03-23T19:11:53.506Z,7.96746
2023-03-23T19:16:54.983Z,8.21741
2023-03-23T19:21:56.624Z,8.3816
2023-03-23T19:26:58.045Z,9.16542
2023-03-23T19:31:59.553Z,9.87874
2023-03-23T19:37:05.720Z,8.9755
2023-03-23T19:42:08.709Z,8.85863
2023-03-23T19:47:10.638Z,9.56559
2023-03-23T19:52:13.616Z,9.27594
2023-03-23T19:57:16.812Z,9.50652
2023-03-23T20:02:18.373Z,9.47857
2023-03-23T20:07:21.392Z,9.45697
2023-03-23T20:12:22.975Z,9.29055
2023-03-23T20:17:24.400Z,8.95644
2023-03-23T20:22:25.896Z,9.56559
2023-03-23T20:27:27.295Z,10.67909
2023-03-23T20:32:28.765Z,10.54284
2023-03-23T20:37:32.032Z,10.60954
2023-03-23T20:42:33.889Z,11.23934
2023-03-23T20:47:35.331Z,10.17125
2023-03-23T20:52:37.041Z,9.9591
2023-03-23T20:57:43.540Z,9.44364
2023-03-23T21:02:44.993Z,10.52347
2023-03-23T21:07:46.496Z,10.30147
2023-03-23T21:12:48.044Z,10.37007
2023-03-23T21:17:49.539Z,10.85854
2023-03-23T21:22:51.058Z,10.13695
2023-03-23T21:27:52.683Z,9.44395
2023-03-23T21:32:54.335Z,9.66945
2023-03-23T21:37:55.952Z,9.51446
2023-03-23T21:42:57.479Z,9.07522
2023-03-23T21:47:58.995Z,8.91833
2023-03-23T21:53:00.411Z,8.13039
2023-03-23T21:58:01.930Z,8.32888
2023-03-23T22:03:03.516Z,7.81375
2023-03-23T22:08:05.003Z,6.64026
2023-03-23T22:13:06.775Z,6.0667
2023-03-23T22:18:08.235Z,5.50934
2023-03-23T22:23:09.708Z,4.88784
2023-03-23T22:28:11.115Z,4.68363
2023-03-23T22:33:12.569Z,5.15683
2023-03-23T22:38:13.975Z,5.71069
2023-03-23T22:43:15.365Z,6.1715
2023-03-23T22:48:16.739Z,5.37786
2023-03-23T22:53:18.263Z,4.76747
2023-03-23T22:58:19.657Z,4.64775
2023-03-23T23:03:21.116Z,5.64813
2023-03-23T23:08:22.662Z,6.0016
2023-03-23T23:13:24.065Z,6.07051
2023-03-23T23:18:25.607Z,6.06194
2023-03-23T23:23:27.030Z,5.91045
2023-03-23T23:28:28.677Z,4.87037
2023-03-23T23:33:30.158Z,4.90975
2023-03-23T23:38:31.632Z,5.56905
2023-03-23T23:43:33.069Z,5.54586
2023-03-23T23:48:34.521Z,6.35348
2023-03-23T23:53:36.011Z,6.16293
2023-03-23T23:58:37.391Z,5.75483
